Time;durP1;ratioP1;P1;durP2;ratioP2;P2;SDS_P1;SDS_P2;PMS_P1;PMS_P2;Temp;Humidity;BMP_temperature;BMP_pressure;BME280_temperature;BME280_humidity;BME280_pressure;Samples;Min_cycle;Max_cycle;Signal;HPM_P1;HPM_P2
2023/03/22 00:02:21;;;;;;;25.67;14.67;;;11.40;99.90;;;;;;5058125;28;20491;-61
2023/03/22 00:04:48;;;;;;;21.40;11.87;;;11.40;99.90;;;;;;5073999;28;20481;-61
2023/03/22 00:07:15;;;;;;;26.43;13.27;;;11.40;99.90;;;;;;5058405;28;20474;-61
2023/03/22 00:09:42;;;;;;;19.87;11.40;;;11.50;99.90;;;;;;5081053;28;20895;-61
2023/03/22 00:12:10;;;;;;;22.33;13.53;;;11.50;99.90;;;;;;5066182;28;21185;-60
2023/03/22 00:14:36;;;;;;;25.77;12.60;;;11.50;99.90;;;;;;5076893;28;20521;-61
2023/03/22 00:17:03;;;;;;;20.43;13.03;;;11.40;99.90;;;;;;5090130;28;20496;-61
2023/03/22 00:19:32;;;;;;;30.93;15.10;;;11.50;99.90;;;;;;5075547;28;20736;-61
2023/03/22 00:22:00;;;;;;;25.90;14.63;;;11.50;99.90;;;;;;5086442;28;20481;-61
2023/03/22 00:24:26;;;;;;;41.73;19.47;;;11.50;99.90;;;;;;5077324;28;20559;-61
2023/03/22 00:26:53;;;;;;;21.93;12.17;;;11.50;99.90;;;;;;5079363;28;20485;-61
2023/03/22 00:29:22;;;;;;;38.70;17.83;;;11.40;99.90;;;;;;5080666;28;20473;-61
2023/03/22 00:31:50;;;;;;;36.27;13.90;;;11.50;99.90;;;;;;5079613;28;20573;-61
2023/03/22 00:34:20;;;;;;;51.10;16.40;;;11.60;99.90;;;;;;5084585;28;20485;-61
2023/03/22 00:36:47;;;;;;;21.43;10.90;;;11.70;99.90;;;;;;5076766;28;20487;-61
2023/03/22 00:39:13;;;;;;;35.60;14.13;;;11.60;99.90;;;;;;5079690;28;20584;-60
2023/03/22 00:41:41;;;;;;;45.40;15.10;;;11.70;99.90;;;;;;5080851;28;20854;-61
2023/03/22 00:44:08;;;;;;;25.13;12.10;;;11.70;99.90;;;;;;5079643;28;20996;-62
2023/03/22 00:47:07;;;;;;;28.17;13.13;;;11.70;99.90;;;;;;5075809;28;20485;-61
2023/03/22 00:49:34;;;;;;;32.83;14.40;;;11.60;99.90;;;;;;5068637;28;20466;-61
2023/03/22 00:52:00;;;;;;;30.03;12.97;;;11.60;99.90;;;;;;5076213;28;20560;-61
2023/03/22 00:54:27;;;;;;;44.47;15.43;;;11.50;99.90;;;;;;5055532;28;20990;-60
2023/03/22 00:56:54;;;;;;;41.87;14.13;;;11.40;99.90;;;;;;5076227;28;20489;-62
2023/03/22 00:59:21;;;;;;;80.03;21.53;;;;;;;;;;5077412;28;20486;-60
2023/03/22 01:01:48;;;;;;;32.60;13.60;;;11.40;99.90;;;;;;5090577;28;20551;-61
2023/03/22 01:04:24;;;;;;;38.63;15.57;;;11.40;99.90;;;;;;5085618;28;20486;-60
2023/03/22 01:06:57;;;;;;;41.80;14.97;;;11.40;99.90;;;;;;5060309;28;20547;-61
2023/03/22 01:09:27;;;;;;;55.63;17.73;;;11.40;99.90;;;;;;5060743;28;20567;-60
2023/03/22 01:11:55;;;;;;;26.00;13.13;;;11.40;99.90;;;;;;5042000;28;20469;-61
2023/03/22 01:14:22;;;;;;;40.90;16.57;;;11.40;99.90;;;;;;5079657;28;20493;-61
2023/03/22 01:16:49;;;;;;;22.93;12.73;;;11.40;99.90;;;;;;5061031;28;20485;-61
2023/03/22 01:19:17;;;;;;;34.30;15.53;;;11.40;99.90;;;;;;5080618;28;20569;-60
2023/03/22 01:21:44;;;;;;;21.40;12.23;;;11.30;99.90;;;;;;5074365;28;20542;-61
2023/03/22 01:24:10;;;;;;;28.60;15.83;;;11.30;99.90;;;;;;5066912;28;20478;-61
2023/03/22 01:26:37;;;;;;;30.93;16.40;;;11.40;99.90;;;;;;5085747;28;21017;-61
2023/03/22 01:29:05;;;;;;;26.37;13.23;;;11.40;99.90;;;;;;5071169;28;20483;-61
2023/03/22 01:31:31;;;;;;;40.43;17.67;;;11.40;99.90;;;;;;5059820;28;20486;-61
2023/03/22 01:33:58;;;;;;;30.20;15.53;;;11.50;99.90;;;;;;5054336;28;20857;-61
2023/03/22 01:36:26;;;;;;;36.57;16.70;;;11.50;99.90;;;;;;5092778;28;20477;-62
2023/03/22 01:38:53;;;;;;;24.83;13.97;;;11.50;99.90;;;;;;5084697;28;20826;-61
2023/03/22 01:41:20;;;;;;;54.83;19.13;;;11.50;99.90;;;;;;5066999;28;20484;-61
2023/03/22 01:44:07;;;;;;;24.53;11.60;;;11.70;99.90;;;;;;5076939;28;20813;-61
2023/03/22 01:46:34;;;;;;;23.37;11.97;;;11.80;99.90;;;;;;5076083;28;21056;-61
2023/03/22 01:52:24;;;;;;;38.70;17.57;;;12.00;99.90;;;;;;5030576;28;21025;-61
2023/03/22 01:54:53;;;;;;;27.13;12.97;;;;;;;;;;5067697;28;20517;-61
2023/03/22 01:57:20;;;;;;;21.23;12.40;;;11.90;99.90;;;;;;5070023;28;20483;-61
2023/03/22 01:59:49;;;;;;;27.77;14.10;;;11.80;99.90;;;;;;5043234;28;20488;-61
2023/03/22 02:02:17;;;;;;;27.97;14.20;;;11.70;99.90;;;;;;5065014;28;20850;-61
2023/03/22 02:04:49;;;;;;;25.53;12.00;;;11.70;99.90;;;;;;5076057;28;20841;-61
2023/03/22 02:07:26;;;;;;;27.63;13.90;;;11.60;99.90;;;;;;5074916;28;20478;-61
2023/03/22 02:09:54;;;;;;;21.87;12.00;;;11.60;99.90;;;;;;5083015;28;21026;-61
2023/03/22 02:12:31;;;;;;;36.30;17.67;;;11.50;99.90;;;;;;5074410;28;20778;-61
2023/03/22 02:15:10;;;;;;;17.33;11.37;;;11.60;99.90;;;;;;5069450;28;20470;-60
2023/03/22 02:17:50;;;;;;;18.37;12.40;;;11.50;99.90;;;;;;5067133;28;20880;-61
2023/03/22 02:20:57;;;;;;;24.83;14.40;;;11.40;99.90;;;;;;5077394;28;20489;-61
2023/03/22 02:23:56;;;;;;;36.23;18.90;;;11.40;99.90;;;;;;5075604;28;20560;-61
2023/03/22 02:27:06;;;;;;;31.63;16.50;;;11.40;99.90;;;;;;5073355;28;20525;-61
2023/03/22 02:29:43;;;;;;;26.43;13.43;;;11.30;99.90;;;;;;5060997;28;20482;-62
2023/03/22 02:32:40;;;;;;;24.83;13.17;;;11.20;99.90;;;;;;5067834;28;20560;-61
2023/03/22 02:35:30;;;;;;;18.93;11.50;;;11.10;99.90;;;;;;5062499;28;20489;-61
2023/03/22 02:38:44;;;;;;;21.83;11.73;;;11.10;99.90;;;;;;5070153;28;20474;-61
2023/03/22 02:41:22;;;;;;;20.43;12.53;;;11.10;99.90;;;;;;5057635;28;20594;-61
2023/03/22 02:43:59;;;;;;;21.10;11.00;;;11.00;99.90;;;;;;5071252;28;20892;-61
2023/03/22 02:46:32;;;;;;;28.27;13.87;;;11.00;99.90;;;;;;5060469;28;20490;-61
2023/03/22 02:49:06;;;;;;;25.93;11.30;;;11.10;99.90;;;;;;5077179;28;20887;-61
2023/03/22 02:51:36;;;;;;;23.50;13.00;;;11.10;99.90;;;;;;5081885;28;20565;-61
2023/03/22 02:54:08;;;;;;;30.47;10.70;;;11.10;99.90;;;;;;5067943;28;21029;-61
2023/03/22 02:56:40;;;;;;;16.40;9.90;;;11.10;99.90;;;;;;5058355;28;20488;-61
2023/03/22 02:59:10;;;;;;;20.37;10.60;;;;;;;;;;5059342;28;20477;-61
2023/03/22 03:01:42;;;;;;;19.13;10.10;;;11.00;99.90;;;;;;5072206;28;20538;-62
2023/03/22 03:04:12;;;;;;;16.43;10.40;;;10.90;99.90;;;;;;5055098;28;20481;-61
2023/03/22 03:06:44;;;;;;;30.10;11.97;;;10.80;99.90;;;;;;5075709;28;20473;-60
2023/03/22 03:09:16;;;;;;;19.63;12.53;;;10.70;99.90;;;;;;5065476;28;20887;-61
2023/03/22 03:11:45;;;;;;;18.43;13.17;;;;;;;;;;5076774;28;20483;-60
2023/03/22 03:14:20;;;;;;;18.73;12.47;;;10.60;99.90;;;;;;5065352;28;20766;-61
2023/03/22 03:16:55;;;;;;;18.77;10.53;;;10.60;99.90;;;;;;5071949;28;20549;-61
2023/03/22 03:19:28;;;;;;;32.87;14.50;;;10.50;99.90;;;;;;5075751;28;20579;-60
2023/03/22 03:22:00;;;;;;;22.90;11.90;;;10.40;99.90;;;;;;5074225;28;20494;-61
2023/03/22 03:24:31;;;;;;;27.57;13.43;;;10.30;99.90;;;;;;5068466;28;21053;-61
2023/03/22 03:27:05;;;;;;;22.03;11.83;;;10.30;99.90;;;;;;5062301;28;20478;-61
2023/03/22 03:29:38;;;;;;;32.63;13.87;;;10.30;99.90;;;;;;5080759;28;20483;-60
2023/03/22 03:32:11;;;;;;;22.13;12.23;;;10.30;99.90;;;;;;5058591;27;20482;-61
2023/03/22 03:34:44;;;;;;;27.30;10.33;;;10.30;99.90;;;;;;5072248;28;20492;-60
2023/03/22 03:37:15;;;;;;;26.97;11.37;;;10.30;99.90;;;;;;5079368;28;20476;-60
2023/03/22 03:39:48;;;;;;;31.83;13.40;;;10.30;99.90;;;;;;5072814;28;20532;-60
2023/03/22 03:42:18;;;;;;;30.43;12.87;;;10.30;99.90;;;;;;5068922;28;20977;-60
2023/03/22 03:44:45;;;;;;;21.70;11.00;;;10.30;99.90;;;;;;5070032;28;20504;-61
2023/03/22 03:47:13;;;;;;;38.83;14.73;;;10.40;99.90;;;;;;5067012;28;20505;-61
2023/03/22 03:49:40;;;;;;;47.73;13.13;;;10.30;99.90;;;;;;5075588;28;20486;-61
2023/03/22 03:52:07;;;;;;;34.63;12.77;;;10.30;99.90;;;;;;5074923;28;21114;-61
2023/03/22 03:54:34;;;;;;;45.43;13.90;;;10.20;99.90;;;;;;5069540;28;20484;-61
2023/03/22 03:57:01;;;;;;;43.93;12.93;;;10.30;99.90;;;;;;5082141;28;20826;-61
2023/03/22 03:59:29;;;;;;;44.43;14.83;;;10.30;99.90;;;;;;5072474;28;20553;-61
2023/03/22 04:01:55;;;;;;;26.37;11.10;;;10.20;99.70;;;;;;5073178;28;21076;-60
2023/03/22 04:04:26;;;;;;;45.33;16.40;;;10.20;99.80;;;;;;5062713;28;20483;-61
2023/03/22 04:06:55;;;;;;;24.80;11.30;;;10.10;99.70;;;;;;5052888;28;20572;-60
2023/03/22 04:09:22;;;;;;;41.87;14.33;;;10.10;99.80;;;;;;5083229;28;20484;-60
2023/03/22 04:11:49;;;;;;;24.37;9.27;;;10.00;99.90;;;;;;5087581;28;20473;-60
2023/03/22 04:14:15;;;;;;;51.03;16.77;;;10.00;99.90;;;;;;5073360;28;20742;-60
2023/03/22 04:16:45;;;;;;;27.17;11.63;;;10.00;99.90;;;;;;5075724;28;20481;-61
2023/03/22 04:19:11;;;;;;;34.80;12.70;;;9.90;99.90;;;;;;5069762;28;20479;-60
2023/03/22 04:21:38;;;;;;;35.13;13.67;;;9.80;99.90;;;;;;5066850;28;20876;-61
2023/03/22 04:24:05;;;;;;;27.43;13.67;;;9.70;99.90;;;;;;5079548;28;20774;-60
2023/03/22 04:26:32;;;;;;;34.17;12.90;;;9.60;99.90;;;;;;5087488;28;20493;-61
2023/03/22 04:29:01;;;;;;;32.30;11.73;;;9.50;99.90;;;;;;5072208;28;20486;-60
2023/03/22 04:31:28;;;;;;;53.03;17.83;;;9.50;99.90;;;;;;5065226;27;20491;-61
2023/03/22 04:33:56;;;;;;;24.53;10.80;;;9.50;99.90;;;;;;5079458;28;20489;-61
2023/03/22 04:36:24;;;;;;;52.50;17.80;;;9.60;99.90;;;;;;5062051;28;20482;-61
2023/03/22 04:38:52;;;;;;;19.90;10.70;;;9.60;99.90;;;;;;5070146;28;20486;-61
2023/03/22 04:41:18;;;;;;;47.60;16.47;;;9.40;99.90;;;;;;5070279;28;20462;-61
2023/03/22 04:43:45;;;;;;;27.73;11.43;;;9.20;99.90;;;;;;5079306;28;20516;-60
2023/03/22 04:46:13;;;;;;;33.83;13.50;;;9.20;99.90;;;;;;5070432;28;20926;-60
2023/03/22 04:48:41;;;;;;;33.07;11.60;;;9.00;99.90;;;;;;5067904;28;20493;-61
2023/03/22 04:51:11;;;;;;;48.83;16.77;;;9.00;99.90;;;;;;5089353;28;20916;-61
2023/03/22 04:53:38;;;;;;;37.73;12.23;;;9.00;99.90;;;;;;5079674;28;20918;-61
2023/03/22 04:56:06;;;;;;;26.40;11.57;;;8.90;99.90;;;;;;5078772;28;20500;-61
2023/03/22 04:58:34;;;;;;;29.87;13.73;;;8.90;99.90;;;;;;5085697;28;20981;-60
2023/03/22 05:01:01;;;;;;;31.23;13.57;;;8.90;99.90;;;;;;5071191;28;20994;-61
2023/03/22 05:03:28;;;;;;;52.30;16.67;;;8.90;99.90;;;;;;5084987;28;20485;-61
2023/03/22 05:05:56;;;;;;;29.43;13.43;;;8.80;99.90;;;;;;5068434;28;20504;-60
2023/03/22 05:08:26;;;;;;;56.27;18.13;;;8.70;99.90;;;;;;5063821;28;20474;-61
2023/03/22 05:10:54;;;;;;;28.73;12.50;;;8.70;99.90;;;;;;5053059;28;20476;-61
2023/03/22 05:13:22;;;;;;;65.40;19.57;;;8.90;99.90;;;;;;5078487;28;20477;-61
2023/03/22 05:15:50;;;;;;;28.80;11.03;;;8.90;99.90;;;;;;5066891;28;20507;-61
2023/03/22 05:18:19;;;;;;;50.33;16.20;;;9.00;99.90;;;;;;5073561;28;20484;-61
2023/03/22 05:20:46;;;;;;;26.83;12.47;;;9.00;99.90;;;;;;5075212;28;20490;-61
2023/03/22 05:23:17;;;;;;;41.37;14.40;;;9.00;99.90;;;;;;5064864;28;20511;-60
2023/03/22 05:25:45;;;;;;;13.20;8.50;;;9.10;99.90;;;;;;5066818;28;20482;-61
2023/03/22 05:28:13;;;;;;;28.70;12.27;;;9.10;99.90;;;;;;5090868;28;20488;-61
2023/03/22 05:30:40;;;;;;;31.63;11.97;;;9.10;99.90;;;;;;5062051;28;20469;-61
2023/03/22 05:33:07;;;;;;;28.43;12.50;;;9.10;99.90;;;;;;5062435;28;20476;-61
2023/03/22 05:35:36;;;;;;;25.83;11.97;;;9.10;99.90;;;;;;5062750;28;21183;-61
2023/03/22 05:38:03;;;;;;;19.60;10.47;;;9.20;99.90;;;;;;5071132;28;20860;-61
2023/03/22 05:40:30;;;;;;;51.33;17.50;;;9.30;99.90;;;;;;5072309;28;20489;-60
2023/03/22 05:42:58;;;;;;;22.70;11.13;;;;;;;;;;5061497;28;20738;-61
2023/03/22 05:45:25;;;;;;;40.93;15.80;;;9.50;99.90;;;;;;5085681;28;20894;-61
2023/03/22 05:47:52;;;;;;;26.50;11.33;;;9.50;99.90;;;;;;5064818;28;20501;-61
2023/03/22 05:50:21;;;;;;;48.00;17.77;;;9.60;99.90;;;;;;5065108;28;20489;-61
2023/03/22 05:52:48;;;;;;;27.90;12.13;;;9.60;99.90;;;;;;5073298;28;20574;-61
2023/03/22 05:55:17;;;;;;;32.10;11.43;;;9.70;99.90;;;;;;5059503;28;20478;-60
2023/03/22 05:57:45;;;;;;;22.43;9.40;;;9.70;99.90;;;;;;5067290;28;20948;-61
2023/03/22 06:00:16;;;;;;;32.60;12.10;;;9.70;99.90;;;;;;5065165;28;20565;-60
2023/03/22 06:02:45;;;;;;;30.70;11.40;;;9.80;99.90;;;;;;5046695;28;20484;-61
2023/03/22 06:05:14;;;;;;;32.73;11.13;;;9.90;99.90;;;;;;5077095;28;20886;-61
2023/03/22 06:07:41;;;;;;;30.50;11.23;;;9.90;99.90;;;;;;5072084;28;20500;-61
2023/03/22 06:10:10;;;;;;;30.03;10.87;;;10.00;99.90;;;;;;5076303;28;20482;-60
2023/03/22 06:12:37;;;;;;;40.00;12.90;;;10.10;99.90;;;;;;5074770;28;20497;-61
2023/03/22 06:15:05;;;;;;;35.97;11.27;;;10.10;99.90;;;;;;5080190;28;20863;-61
2023/03/22 06:17:33;;;;;;;30.37;11.77;;;10.10;99.90;;;;;;5077365;28;20477;-60
2023/03/22 06:20:01;;;;;;;30.37;10.07;;;10.10;99.90;;;;;;5028444;28;20478;-61
2023/03/22 06:22:29;;;;;;;40.80;13.67;;;10.10;99.90;;;;;;5074963;28;20478;-60
2023/03/22 06:24:56;;;;;;;24.90;10.90;;;10.20;99.90;;;;;;5065403;28;20573;-61
2023/03/22 06:27:22;;;;;;;30.43;11.93;;;10.20;99.90;;;;;;5087634;28;20488;-61
2023/03/22 06:29:53;;;;;;;28.03;11.00;;;10.30;99.90;;;;;;5095045;28;20478;-61
2023/03/22 06:32:22;;;;;;;53.33;17.10;;;10.30;99.90;;;;;;5072996;28;20682;-61
2023/03/22 06:34:50;;;;;;;23.43;9.90;;;10.30;99.90;;;;;;5081294;28;20510;-61
2023/03/22 06:37:17;;;;;;;40.23;14.00;;;10.30;99.90;;;;;;5077200;28;20466;-61
2023/03/22 06:39:44;;;;;;;23.97;10.70;;;10.30;99.90;;;;;;5065416;28;20997;-61
2023/03/22 06:42:10;;;;;;;27.53;11.97;;;10.30;99.90;;;;;;5070644;28;20482;-61
2023/03/22 06:44:38;;;;;;;31.97;14.17;;;10.30;99.90;;;;;;5072557;28;20670;-61
2023/03/22 06:47:05;;;;;;;17.50;9.30;;;12.20;99.90;;;;;;5077923;28;20908;-60
2023/03/22 06:49:31;;;;;;;35.37;13.47;;;10.40;99.90;;;;;;5075385;27;20468;-61
2023/03/22 06:51:59;;;;;;;20.60;10.07;;;10.40;99.90;;;;;;5070009;28;20471;-61
2023/03/22 06:54:26;;;;;;;38.33;15.50;;;10.50;99.90;;;;;;5077605;28;20483;-61
2023/03/22 06:56:53;;;;;;;18.40;9.10;;;10.60;99.90;;;;;;5091845;28;20478;-61
2023/03/22 06:59:20;;;;;;;22.30;10.67;;;10.70;99.90;;;;;;5064006;28;20521;-61
2023/03/22 07:01:47;;;;;;;18.13;9.47;;;10.80;99.90;;;;;;5090948;28;20490;-61
2023/03/22 07:04:14;;;;;;;29.20;13.47;;;11.00;99.90;;;;;;5055966;28;20469;-61
2023/03/22 07:06:40;;;;;;;20.40;10.10;;;11.10;99.90;;;;;;5069764;28;20839;-60
2023/03/22 07:09:09;;;;;;;19.37;9.20;;;11.10;99.90;;;;;;5066979;28;20474;-61
2023/03/22 07:11:35;;;;;;;31.20;14.63;;;11.10;99.90;;;;;;5066581;28;20477;-61
2023/03/22 07:14:02;;;;;;;19.37;9.60;;;11.30;99.90;;;;;;5068263;27;20486;-61
2023/03/22 07:16:29;;;;;;;28.93;15.27;;;11.50;99.90;;;;;;5068944;28;20475;-61
2023/03/22 07:18:56;;;;;;;17.23;8.67;;;11.60;99.90;;;;;;5053726;28;20486;-62
2023/03/22 07:21:23;;;;;;;26.53;13.70;;;11.80;99.90;;;;;;5075194;28;20477;-61
2023/03/22 07:23:49;;;;;;;12.90;8.03;;;12.00;99.90;;;;;;5087420;28;20481;-61
2023/03/22 07:26:17;;;;;;;14.87;8.40;;;12.10;99.90;;;;;;5058173;28;21176;-61
2023/03/22 07:28:45;;;;;;;18.13;9.30;;;12.30;99.90;;;;;;5084542;28;20496;-61
2023/03/22 07:31:13;;;;;;;18.13;10.30;;;12.60;99.90;;;;;;5069228;28;20481;-62
2023/03/22 07:33:40;;;;;;;11.20;6.83;;;12.70;99.90;;;;;;5059529;28;20871;-62
2023/03/22 07:36:08;;;;;;;9.27;6.37;;;12.80;99.90;;;;;;5077617;28;20486;-61
2023/03/22 07:38:36;;;;;;;27.33;12.73;;;12.70;99.90;;;;;;5068029;28;20491;-61
2023/03/22 07:41:03;;;;;;;11.83;7.70;;;12.60;99.90;;;;;;5056249;28;20493;-61
2023/03/22 07:43:31;;;;;;;20.03;10.73;;;12.80;99.90;;;;;;5078757;28;20510;-62
2023/03/22 07:45:57;;;;;;;19.50;6.13;;;13.30;99.80;;;;;;5072924;28;20474;-62
2023/03/22 07:48:24;;;;;;;24.17;11.50;;;13.70;99.10;;;;;;5066829;28;20470;-62
2023/03/22 07:50:55;;;;;;;13.13;7.33;;;13.70;98.50;;;;;;5078361;28;20489;-62
2023/03/22 07:53:21;;;;;;;18.47;8.23;;;13.80;99.10;;;;;;5067500;28;20793;-61
2023/03/22 07:55:48;;;;;;;12.20;6.70;;;13.70;98.50;;;;;;5080385;28;20827;-62
2023/03/22 07:58:15;;;;;;;19.13;8.10;;;13.60;98.40;;;;;;5057218;28;20481;-61
2023/03/22 08:00:43;;;;;;;15.27;7.30;;;13.60;98.80;;;;;;5080630;28;20524;-62
2023/03/22 08:03:11;;;;;;;11.37;6.57;;;13.50;98.30;;;;;;5081110;27;20860;-62
2023/03/22 08:05:40;;;;;;;14.53;8.83;;;13.60;98.70;;;;;;5072023;28;21103;-61
2023/03/22 08:08:07;;;;;;;16.23;7.03;;;13.70;99.10;;;;;;5073348;28;20725;-62
2023/03/22 08:10:34;;;;;;;16.73;10.20;;;13.90;98.70;;;;;;5079789;28;20924;-62
2023/03/22 08:13:01;;;;;;;14.67;9.10;;;14.10;98.50;;;;;;5078715;28;20870;-61
2023/03/22 08:15:27;;;;;;;20.50;11.07;;;14.00;98.30;;;;;;5062331;28;20470;-62
2023/03/22 08:17:56;;;;;;;9.53;6.67;;;14.00;98.30;;;;;;5075616;28;20482;-62
2023/03/22 08:20:24;;;;;;;14.00;8.40;;;14.00;98.80;;;;;;5067875;28;20541;-62
2023/03/22 08:22:51;;;;;;;12.00;5.57;;;14.20;98.60;;;;;;5060772;28;20829;-62
2023/03/22 08:25:18;;;;;;;9.17;6.37;;;14.20;98.40;;;;;;5066584;28;20466;-62
2023/03/22 08:27:45;;;;;;;11.90;7.70;;;14.30;98.30;;;;;;5069495;28;20478;-61
2023/03/22 08:30:13;;;;;;;13.67;5.70;;;14.50;98.80;;;;;;5082129;28;20731;-62
2023/03/22 08:32:39;;;;;;;6.93;4.70;;;14.40;98.40;;;;;;5063265;28;20494;-61
2023/03/22 08:35:09;;;;;;;10.40;6.70;;;;;;;;;;5081018;28;20481;-62
2023/03/22 08:37:35;;;;;;;11.73;8.00;;;14.50;98.50;;;;;;5060496;28;20619;-62
2023/03/22 08:40:05;;;;;;;7.73;5.33;;;14.60;98.50;;;;;;5071936;28;20475;-62
2023/03/22 08:42:32;;;;;;;15.40;10.30;;;14.60;98.40;;;;;;5068101;28;20951;-62
2023/03/22 08:44:58;;;;;;;9.67;5.50;;;14.50;98.00;;;;;;5078243;28;20724;-62
2023/03/22 08:47:25;;;;;;;13.23;8.47;;;14.60;97.80;;;;;;5080202;27;20834;-62
2023/03/22 08:49:52;;;;;;;6.27;4.47;;;14.80;97.80;;;;;;5077191;28;20822;-62
2023/03/22 08:52:20;;;;;;;10.13;6.87;;;14.90;98.10;;;;;;5074377;28;20475;-62
2023/03/22 08:54:47;;;;;;;8.20;5.90;;;15.00;97.60;;;;;;5064860;28;20490;-62
2023/03/22 08:57:15;;;;;;;6.17;5.03;;;14.90;97.60;;;;;;5054304;28;20559;-62
2023/03/22 08:59:42;;;;;;;9.10;6.03;;;14.80;96.90;;;;;;5069511;28;20478;-61
2023/03/22 09:02:08;;;;;;;9.30;5.90;;;14.80;97.20;;;;;;5073099;28;20479;-62
2023/03/22 09:04:35;;;;;;;11.57;7.80;;;14.50;97.60;;;;;;5081007;28;20835;-62
2023/03/22 09:07:02;;;;;;;5.73;4.43;;;14.60;97.60;;;;;;5072852;28;20482;-62
2023/03/22 09:09:30;;;;;;;17.33;10.43;;;14.70;98.20;;;;;;5074576;28;20511;-62
2023/03/22 09:11:57;;;;;;;14.07;5.53;;;14.80;97.50;;;;;;5072300;28;20477;-62
2023/03/22 09:14:24;;;;;;;13.00;7.97;;;15.00;98.10;;;;;;5070887;28;20967;-62
2023/03/22 09:16:50;;;;;;;6.23;4.30;;;15.20;97.50;;;;;;5071280;28;20979;-62
2023/03/22 09:19:17;;;;;;;6.23;4.87;;;15.20;97.90;;;;;;5066866;28;20521;-62
2023/03/22 09:21:44;;;;;;;7.60;4.90;;;15.40;98.20;;;;;;5059699;28;20513;-62
2023/03/22 09:24:11;;;;;;;9.60;6.00;;;15.60;97.50;;;;;;5068457;28;20478;-61
2023/03/22 09:26:39;;;;;;;10.47;6.90;;;15.30;97.00;;;;;;5067639;28;20486;-62
2023/03/22 09:29:05;;;;;;;5.87;4.07;;;15.50;97.10;;;;;;5082448;28;20935;-62
2023/03/22 09:31:32;;;;;;;19.53;11.60;;;15.50;97.60;;;;;;5075471;28;20477;-62
2023/03/22 09:33:59;;;;;;;11.30;6.37;;;15.70;98.10;;;;;;5069949;28;20482;-62
2023/03/22 09:36:25;;;;;;;18.63;10.37;;;15.50;97.00;;;;;;5070915;28;20498;-62
2023/03/22 09:38:52;;;;;;;7.47;5.23;;;15.50;96.80;;;;;;5065370;28;20478;-61
2023/03/22 09:41:23;;;;;;;13.93;7.10;;;15.60;97.30;;;;;;5060053;28;20484;-62
2023/03/22 09:43:55;;;;;;;9.00;5.93;;;15.60;96.90;;;;;;5071572;28;20482;-62
2023/03/22 09:46:29;;;;;;;21.73;9.63;;;15.60;98.10;;;;;;5064291;28;20480;-62
2023/03/22 09:48:57;;;;;;;14.83;5.53;;;15.50;96.80;;;;;;5059281;28;20525;-62
2023/03/22 09:51:33;;;;;;;20.57;9.20;;;15.60;96.80;;;;;;5075083;28;20496;-61
2023/03/22 09:54:00;;;;;;;8.90;5.20;;;15.60;97.70;;;;;;5061960;28;20504;-62
2023/03/22 09:56:29;;;;;;;29.07;12.27;;;15.60;97.00;;;;;;5066972;28;20544;-62
2023/03/22 09:59:04;;;;;;;9.60;5.20;;;15.60;96.50;;;;;;5040269;28;20467;-62
2023/03/22 10:01:40;;;;;;;30.97;10.50;;;15.70;97.40;;;;;;5074564;28;20482;-62
2023/03/22 10:04:31;;;;;;;11.77;6.00;;;15.90;97.10;;;;;;5057965;28;20523;-62
2023/03/22 10:07:06;;;;;;;15.40;6.43;;;16.20;96.80;;;;;;5076535;28;20484;-62
2023/03/22 10:09:39;;;;;;;31.43;12.90;;;16.40;96.70;;;;;;5063325;28;20857;-62
2023/03/22 10:12:15;;;;;;;12.47;6.00;;;16.70;96.30;;;;;;5060910;28;20466;-62
2023/03/22 10:14:48;;;;;;;12.00;5.77;;;16.80;97.20;;;;;;5039783;28;20785;-63
2023/03/22 10:17:18;;;;;;;13.90;5.17;;;16.60;96.30;;;;;;5066630;28;20479;-62
2023/03/22 10:19:51;;;;;;;9.80;5.57;;;16.50;95.50;;;;;;5078586;28;20487;-63
2023/03/22 10:22:23;;;;;;;20.33;7.30;;;16.50;95.50;;;;;;5069487;28;22038;-62
2023/03/22 10:24:52;;;;;;;8.40;6.10;;;16.60;96.00;;;;;;5066149;28;20494;-63
2023/03/22 10:27:21;;;;;;;9.73;6.23;;;16.80;96.10;;;;;;5085555;28;20486;-62
2023/03/22 10:29:53;;;;;;;13.27;6.57;;;17.20;95.60;;;;;;5055401;28;20490;-62
2023/03/22 10:32:25;;;;;;;6.23;4.63;;;17.30;94.60;;;;;;5068945;28;20488;-62
2023/03/22 10:34:52;;;;;;;5.80;4.33;;;17.10;93.80;;;;;;5071546;28;20553;-62
2023/03/22 10:37:23;;;;;;;8.23;4.80;;;16.90;93.40;;;;;;5071444;28;20478;-63
2023/03/22 10:39:54;;;;;;;8.63;5.53;;;16.80;93.80;;;;;;5076792;28;20770;-61
2023/03/22 10:42:23;;;;;;;7.03;4.97;;;16.60;93.40;;;;;;5076690;28;20470;-62
2023/03/22 10:44:55;;;;;;;8.90;5.60;;;16.50;93.50;;;;;;5077437;28;20469;-62
2023/03/22 10:47:27;;;;;;;11.70;6.30;;;;;;;;;;5064240;28;20481;-62
2023/03/22 10:49:57;;;;;;;9.30;5.87;;;16.50;94.10;;;;;;5092668;28;20485;-62
2023/03/22 10:52:38;;;;;;;12.47;7.57;;;16.70;93.90;;;;;;5073726;28;20486;-62
2023/03/22 10:55:09;;;;;;;11.83;4.60;;;16.70;93.40;;;;;;5051221;28;20482;-63
2023/03/22 10:57:38;;;;;;;21.73;9.20;;;17.00;94.80;;;;;;5065224;27;21070;-62
2023/03/22 11:00:10;;;;;;;8.73;4.70;;;17.00;93.30;;;;;;5077981;28;21002;-62
2023/03/22 11:02:46;;;;;;;12.83;7.97;;;17.10;93.80;;;;;;5063749;28;21038;-63
2023/03/22 11:05:22;;;;;;;14.80;6.43;;;17.40;93.80;;;;;;5074611;28;20556;-63
2023/03/22 11:07:49;;;;;;;6.10;4.30;;;17.60;94.40;;;;;;5077762;28;20565;-62
2023/03/22 11:10:28;;;;;;;8.20;5.43;;;17.50;92.30;;;;;;5077996;28;20467;-63
2023/03/22 11:13:10;;;;;;;11.03;4.50;;;17.50;93.60;;;;;;5070123;28;20561;-62
2023/03/22 11:15:41;;;;;;;12.83;7.83;;;17.50;93.80;;;;;;5069868;28;20573;-62
2023/03/22 11:18:13;;;;;;;11.93;4.60;;;17.50;93.50;;;;;;5056976;28;20483;-62
2023/03/22 11:20:40;;;;;;;23.63;6.33;;;17.40;92.90;;;;;;5048350;28;20568;-63
2023/03/22 11:23:11;;;;;;;5.47;4.10;;;17.40;92.50;;;;;;5057461;28;20531;-62
2023/03/22 11:25:45;;;;;;;11.63;6.87;;;17.20;92.60;;;;;;5065985;28;20846;-62
2023/03/22 11:28:26;;;;;;;8.73;5.90;;;19.40;93.60;;;;;;5075428;28;20477;-62
2023/03/22 11:31:04;;;;;;;13.63;7.33;;;17.20;92.50;;;;;;5058597;28;20748;-62
2023/03/22 11:33:32;;;;;;;19.60;8.80;;;17.20;92.90;;;;;;5063915;28;20474;-62
2023/03/22 11:36:01;;;;;;;14.60;5.10;;;17.10;93.10;;;;;;5065098;28;20474;-62
2023/03/22 11:38:30;;;;;;;27.87;11.00;;;17.00;92.90;;;;;;5078375;28;20486;-62
2023/03/22 11:41:01;;;;;;;21.43;7.43;;;17.00;93.30;;;;;;5080256;28;20930;-62
2023/03/22 11:43:32;;;;;;;50.73;12.83;;;17.20;93.00;;;;;;5073707;28;20497;-62
2023/03/22 11:46:01;;;;;;;57.17;11.30;;;;;;;;;;5072479;28;20485;-62
2023/03/22 11:48:31;;;;;;;128.27;14.30;;;17.40;94.70;;;;;;5070568;28;20482;-62
2023/03/22 11:51:04;;;;;;;57.90;10.03;;;;;;;;;;5076081;28;20889;-62
2023/03/22 11:53:33;;;;;;;89.97;12.57;;;17.40;93.50;;;;;;5061894;28;20483;-62
2023/03/22 11:56:02;;;;;;;37.93;8.40;;;16.80;92.20;;;;;;5085152;28;20465;-63
2023/03/22 11:58:43;;;;;;;88.23;13.73;;;17.10;93.60;;;;;;5063431;28;20493;-62
2023/03/22 12:01:18;;;;;;;40.27;7.90;;;17.10;93.80;;;;;;5064430;28;20467;-62
2023/03/22 12:03:57;;;;;;;53.90;10.73;;;17.20;93.80;;;;;;5065244;28;20485;-62
2023/03/22 12:06:27;;;;;;;35.93;8.40;;;17.60;93.30;;;;;;5054317;28;20557;-62
2023/03/22 12:08:57;;;;;;;20.67;6.90;;;17.40;92.70;;;;;;5085589;28;20484;-62
2023/03/22 12:11:29;;;;;;;35.40;10.00;;;17.60;92.50;;;;;;5074227;28;20478;-62
2023/03/22 12:14:00;;;;;;;18.60;7.10;;;17.60;93.20;;;;;;5081507;28;20990;-62
2023/03/22 12:16:32;;;;;;;41.47;9.97;;;17.30;92.50;;;;;;5083418;28;20505;-63
2023/03/22 12:19:11;;;;;;;13.97;5.63;;;17.10;92.10;;;;;;5078261;28;21392;-62
2023/03/22 12:21:38;;;;;;;31.70;10.07;;;17.30;93.30;;;;;;5063082;28;21521;-62
2023/03/22 12:24:18;;;;;;;9.00;4.37;;;17.20;92.00;;;;;;5081279;28;20473;-63
2023/03/22 12:26:45;;;;;;;19.40;9.10;;;17.50;92.90;;;;;;5070048;28;20635;-63
2023/03/22 12:29:17;;;;;;;13.10;6.20;;;17.90;92.40;;;;;;5075610;28;20837;-62
2023/03/22 12:31:55;;;;;;;8.83;5.60;;;18.00;93.40;;;;;;5050084;28;20565;-63
2023/03/22 12:34:32;;;;;;;17.63;8.97;;;17.90;91.60;;;;;;5062049;28;21089;-63
2023/03/22 12:37:02;;;;;;;5.27;4.10;;;18.20;93.10;;;;;;5077857;28;20489;-62
2023/03/22 12:39:35;;;;;;;18.53;9.40;;;17.90;91.80;;;;;;5081509;28;20469;-62
2023/03/22 12:42:10;;;;;;;8.20;5.23;;;17.80;92.90;;;;;;5086534;28;20494;-63
2023/03/22 12:44:40;;;;;;;18.27;8.13;;;17.80;91.90;;;;;;5078705;28;20482;-63
2023/03/22 12:47:17;;;;;;;8.50;4.90;;;17.50;91.10;;;;;;5066184;28;20730;-63
2023/03/22 12:49:51;;;;;;;12.27;7.53;;;17.40;91.60;;;;;;5068280;28;20481;-62
2023/03/22 12:52:21;;;;;;;10.87;6.80;;;17.70;91.50;;;;;;5081815;28;20629;-63
2023/03/22 12:54:50;;;;;;;10.67;3.97;;;17.90;92.30;;;;;;5077762;28;20795;-63